sensor_id;sensor_type;location;lat;lon;timestamp;P1;durP1;ratioP1;P2;durP2;ratioP2
46000;SDS011;72226;48.272;11.180;2024-03-07T00:00:56;16.08;;;14.15;;
46000;SDS011;72226;48.272;11.180;2024-03-07T00:03:21;16.52;;;13.02;;
46000;SDS011;72226;48.272;11.180;2024-03-07T00:05:49;14.80;;;12.57;;
46000;SDS011;72226;48.272;11.180;2024-03-07T00:08:14;15.82;;;12.40;;
46000;SDS011;72226;48.272;11.180;2024-03-07T00:10:39;14.65;;;12.35;;
46000;SDS011;72226;48.272;11.180;2024-03-07T00:13:05;14.60;;;12.43;;
46000;SDS011;72226;48.272;11.180;2024-03-07T00:15:30;13.63;;;12.10;;
46000;SDS011;72226;48.272;11.180;2024-03-07T00:17:55;13.07;;;11.70;;
46000;SDS011;72226;48.272;11.180;2024-03-07T00:20:20;16.65;;;13.48;;
46000;SDS011;72226;48.272;11.180;2024-03-07T00:22:46;14.68;;;12.50;;
46000;SDS011;72226;48.272;11.180;2024-03-07T00:25:11;18.52;;;13.65;;
46000;SDS011;72226;48.272;11.180;2024-03-07T00:27:38;15.82;;;12.40;;
46000;SDS011;72226;48.272;11.180;2024-03-07T00:30:04;16.05;;;12.82;;
46000;SDS011;72226;48.272;11.180;2024-03-07T00:32:30;15.80;;;13.32;;
46000;SDS011;72226;48.272;11.180;2024-03-07T00:35:00;19.63;;;15.68;;
46000;SDS011;72226;48.272;11.180;2024-03-07T00:37:28;20.95;;;15.50;;
46000;SDS011;72226;48.272;11.180;2024-03-07T00:39:53;19.02;;;13.50;;
46000;SDS011;72226;48.272;11.180;2024-03-07T00:42:19;18.63;;;14.60;;
46000;SDS011;72226;48.272;11.180;2024-03-07T00:44:44;16.35;;;14.20;;
46000;SDS011;72226;48.272;11.180;2024-03-07T00:47:10;17.55;;;14.00;;
46000;SDS011;72226;48.272;11.180;2024-03-07T00:49:35;18.40;;;13.57;;
46000;SDS011;72226;48.272;11.180;2024-03-07T00:52:01;16.95;;;13.88;;
46000;SDS011;72226;48.272;11.180;2024-03-07T00:54:26;18.92;;;13.63;;
46000;SDS011;72226;48.272;11.180;2024-03-07T00:56:52;21.67;;;16.35;;
46000;SDS011;72226;48.272;11.180;2024-03-07T00:59:18;22.55;;;14.98;;
46000;SDS011;72226;48.272;11.180;2024-03-07T01:01:43;18.58;;;14.10;;
46000;SDS011;72226;48.272;11.180;2024-03-07T01:04:08;18.55;;;14.27;;
46000;SDS011;72226;48.272;11.180;2024-03-07T01:06:34;21.88;;;17.45;;
46000;SDS011;72226;48.272;11.180;2024-03-07T01:08:59;19.67;;;15.35;;
46000;SDS011;72226;48.272;11.180;2024-03-07T01:11:25;24.52;;;16.45;;
46000;SDS011;72226;48.272;11.180;2024-03-07T01:13:50;20.10;;;14.82;;
46000;SDS011;72226;48.272;11.180;2024-03-07T01:16:15;21.35;;;15.70;;
46000;SDS011;72226;48.272;11.180;2024-03-07T01:18:40;20.27;;;16.42;;
46000;SDS011;72226;48.272;11.180;2024-03-07T01:21:06;21.05;;;15.10;;
46000;SDS011;72226;48.272;11.180;2024-03-07T01:23:31;20.65;;;15.27;;
46000;SDS011;72226;48.272;11.180;2024-03-07T01:25:57;21.83;;;16.08;;
46000;SDS011;72226;48.272;11.180;2024-03-07T01:28:26;22.48;;;17.00;;
46000;SDS011;72226;48.272;11.180;2024-03-07T01:30:51;20.38;;;15.75;;
46000;SDS011;72226;48.272;11.180;2024-03-07T01:33:17;17.13;;;14.70;;
46000;SDS011;72226;48.272;11.180;2024-03-07T01:35:42;17.27;;;14.07;;
46000;SDS011;72226;48.272;11.180;2024-03-07T01:38:08;23.40;;;15.25;;
46000;SDS011;72226;48.272;11.180;2024-03-07T01:40:39;21.48;;;16.48;;
46000;SDS011;72226;48.272;11.180;2024-03-07T01:43:04;19.67;;;15.02;;
46000;SDS011;72226;48.272;11.180;2024-03-07T01:45:30;20.90;;;15.30;;
46000;SDS011;72226;48.272;11.180;2024-03-07T01:47:55;17.80;;;14.27;;
46000;SDS011;72226;48.272;11.180;2024-03-07T01:50:21;20.77;;;16.50;;
46000;SDS011;72226;48.272;11.180;2024-03-07T01:52:46;21.25;;;14.52;;
46000;SDS011;72226;48.272;11.180;2024-03-07T01:55:13;22.10;;;15.60;;
46000;SDS011;72226;48.272;11.180;2024-03-07T01:57:39;23.38;;;16.25;;
46000;SDS011;72226;48.272;11.180;2024-03-07T02:00:04;19.27;;;14.07;;
46000;SDS011;72226;48.272;11.180;2024-03-07T02:02:31;18.38;;;14.75;;
46000;SDS011;72226;48.272;11.180;2024-03-07T02:04:57;23.90;;;16.80;;
46000;SDS011;72226;48.272;11.180;2024-03-07T02:07:23;17.23;;;14.43;;
46000;SDS011;72226;48.272;11.180;2024-03-07T02:09:48;24.05;;;16.38;;
46000;SDS011;72226;48.272;11.180;2024-03-07T02:12:13;20.70;;;16.17;;
46000;SDS011;72226;48.272;11.180;2024-03-07T02:14:38;20.17;;;15.02;;
46000;SDS011;72226;48.272;11.180;2024-03-07T02:17:04;22.88;;;16.83;;
46000;SDS011;72226;48.272;11.180;2024-03-07T02:19:29;20.75;;;14.70;;
46000;SDS011;72226;48.272;11.180;2024-03-07T02:21:54;20.38;;;16.25;;
46000;SDS011;72226;48.272;11.180;2024-03-07T02:24:19;18.85;;;16.65;;
46000;SDS011;72226;48.272;11.180;2024-03-07T02:26:45;20.55;;;16.42;;
46000;SDS011;72226;48.272;11.180;2024-03-07T02:29:10;18.50;;;15.30;;
46000;SDS011;72226;48.272;11.180;2024-03-07T02:31:35;22.67;;;16.20;;
46000;SDS011;72226;48.272;11.180;2024-03-07T02:34:05;24.35;;;17.70;;
46000;SDS011;72226;48.272;11.180;2024-03-07T02:36:32;22.90;;;16.95;;
46000;SDS011;72226;48.272;11.180;2024-03-07T02:38:57;22.48;;;16.30;;
46000;SDS011;72226;48.272;11.180;2024-03-07T02:41:23;19.60;;;14.93;;
46000;SDS011;72226;48.272;11.180;2024-03-07T02:43:49;19.40;;;14.63;;
46000;SDS011;72226;48.272;11.180;2024-03-07T02:46:14;20.75;;;14.40;;
46000;SDS011;72226;48.272;11.180;2024-03-07T02:48:39;18.83;;;14.80;;
46000;SDS011;72226;48.272;11.180;2024-03-07T02:51:05;24.17;;;15.57;;
46000;SDS011;72226;48.272;11.180;2024-03-07T02:53:33;21.67;;;17.52;;
46000;SDS011;72226;48.272;11.180;2024-03-07T02:55:58;22.65;;;17.10;;
46000;SDS011;72226;48.272;11.180;2024-03-07T02:58:24;20.70;;;15.93;;
46000;SDS011;72226;48.272;11.180;2024-03-07T03:00:56;21.05;;;16.15;;
46000;SDS011;72226;48.272;11.180;2024-03-07T03:03:21;22.63;;;16.92;;
46000;SDS011;72226;48.272;11.180;2024-03-07T03:05:47;19.98;;;15.70;;
46000;SDS011;72226;48.272;11.180;2024-03-07T03:08:12;22.00;;;17.70;;
46000;SDS011;72226;48.272;11.180;2024-03-07T03:10:39;18.00;;;15.27;;
46000;SDS011;72226;48.272;11.180;2024-03-07T03:13:04;22.25;;;17.52;;
46000;SDS011;72226;48.272;11.180;2024-03-07T03:15:29;17.02;;;14.63;;
46000;SDS011;72226;48.272;11.180;2024-03-07T03:17:55;19.88;;;15.52;;
46000;SDS011;72226;48.272;11.180;2024-03-07T03:20:24;22.50;;;17.20;;
46000;SDS011;72226;48.272;11.180;2024-03-07T03:22:52;27.00;;;19.40;;
46000;SDS011;72226;48.272;11.180;2024-03-07T03:25:18;25.60;;;17.75;;
46000;SDS011;72226;48.272;11.180;2024-03-07T03:27:44;27.30;;;19.40;;
46000;SDS011;72226;48.272;11.180;2024-03-07T03:30:09;25.17;;;19.33;;
46000;SDS011;72226;48.272;11.180;2024-03-07T03:32:38;34.80;;;24.70;;
46000;SDS011;72226;48.272;11.180;2024-03-07T03:35:03;29.45;;;21.55;;
46000;SDS011;72226;48.272;11.180;2024-03-07T03:37:29;31.60;;;22.35;;
46000;SDS011;72226;48.272;11.180;2024-03-07T03:39:54;32.10;;;23.63;;
46000;SDS011;72226;48.272;11.180;2024-03-07T03:42:20;34.83;;;24.63;;
46000;SDS011;72226;48.272;11.180;2024-03-07T03:44:46;34.55;;;24.45;;
46000;SDS011;72226;48.272;11.180;2024-03-07T03:47:11;34.40;;;24.55;;
46000;SDS011;72226;48.272;11.180;2024-03-07T03:49:37;37.47;;;27.75;;
46000;SDS011;72226;48.272;11.180;2024-03-07T03:52:02;39.78;;;27.48;;
46000;SDS011;72226;48.272;11.180;2024-03-07T03:54:27;42.03;;;28.75;;
46000;SDS011;72226;48.272;11.180;2024-03-07T03:56:53;43.08;;;29.48;;
46000;SDS011;72226;48.272;11.180;2024-03-07T03:59:18;47.58;;;32.00;;
46000;SDS011;72226;48.272;11.180;2024-03-07T04:01:43;45.42;;;33.50;;
46000;SDS011;72226;48.272;11.180;2024-03-07T04:04:10;46.08;;;29.20;;
46000;SDS011;72226;48.272;11.180;2024-03-07T04:06:35;48.22;;;34.45;;
46000;SDS011;72226;48.272;11.180;2024-03-07T04:09:00;55.72;;;35.40;;
46000;SDS011;72226;48.272;11.180;2024-03-07T04:11:26;46.85;;;35.20;;
46000;SDS011;72226;48.272;11.180;2024-03-07T04:13:51;48.90;;;35.10;;
46000;SDS011;72226;48.272;11.180;2024-03-07T04:16:17;46.40;;;34.05;;
46000;SDS011;72226;48.272;11.180;2024-03-07T04:18:42;48.15;;;35.80;;
46000;SDS011;72226;48.272;11.180;2024-03-07T04:21:07;51.97;;;35.00;;
46000;SDS011;72226;48.272;11.180;2024-03-07T04:23:34;55.63;;;36.03;;
46000;SDS011;72226;48.272;11.180;2024-03-07T04:25:59;54.65;;;34.95;;
46000;SDS011;72226;48.272;11.180;2024-03-07T04:28:25;50.40;;;35.95;;
46000;SDS011;72226;48.272;11.180;2024-03-07T04:30:50;55.42;;;36.53;;
46000;SDS011;72226;48.272;11.180;2024-03-07T04:33:15;54.28;;;37.72;;
46000;SDS011;72226;48.272;11.180;2024-03-07T04:35:41;52.60;;;37.15;;
46000;SDS011;72226;48.272;11.180;2024-03-07T04:38:06;53.78;;;35.72;;
46000;SDS011;72226;48.272;11.180;2024-03-07T04:40:36;63.50;;;37.55;;
46000;SDS011;72226;48.272;11.180;2024-03-07T04:43:01;52.58;;;36.17;;
46000;SDS011;72226;48.272;11.180;2024-03-07T04:45:26;48.22;;;37.67;;
46000;SDS011;72226;48.272;11.180;2024-03-07T04:47:52;52.63;;;37.10;;
46000;SDS011;72226;48.272;11.180;2024-03-07T04:50:17;52.13;;;35.65;;
46000;SDS011;72226;48.272;11.180;2024-03-07T04:52:42;50.65;;;35.95;;
46000;SDS011;72226;48.272;11.180;2024-03-07T04:55:08;51.17;;;35.15;;
46000;SDS011;72226;48.272;11.180;2024-03-07T04:57:37;59.80;;;37.42;;
46000;SDS011;72226;48.272;11.180;2024-03-07T05:00:04;51.30;;;34.72;;
46000;SDS011;72226;48.272;11.180;2024-03-07T05:02:30;49.45;;;34.40;;
46000;SDS011;72226;48.272;11.180;2024-03-07T05:04:55;53.80;;;36.22;;
46000;SDS011;72226;48.272;11.180;2024-03-07T05:07:21;49.38;;;34.13;;
46000;SDS011;72226;48.272;11.180;2024-03-07T05:09:46;49.80;;;35.92;;
46000;SDS011;72226;48.272;11.180;2024-03-07T05:12:11;58.10;;;36.13;;
46000;SDS011;72226;48.272;11.180;2024-03-07T05:14:36;52.22;;;35.90;;
46000;SDS011;72226;48.272;11.180;2024-03-07T05:17:02;52.97;;;36.70;;
46000;SDS011;72226;48.272;11.180;2024-03-07T05:19:30;50.63;;;35.55;;
46000;SDS011;72226;48.272;11.180;2024-03-07T05:21:56;48.38;;;36.30;;
46000;SDS011;72226;48.272;11.180;2024-03-07T05:24:21;53.45;;;38.78;;
46000;SDS011;72226;48.272;11.180;2024-03-07T05:26:46;51.33;;;36.30;;
46000;SDS011;72226;48.272;11.180;2024-03-07T05:29:12;50.30;;;36.63;;
46000;SDS011;72226;48.272;11.180;2024-03-07T05:31:37;51.25;;;36.33;;
46000;SDS011;72226;48.272;11.180;2024-03-07T05:34:05;54.33;;;34.95;;
46000;SDS011;72226;48.272;11.180;2024-03-07T05:36:34;53.08;;;36.08;;
46000;SDS011;72226;48.272;11.180;2024-03-07T05:38:59;54.22;;;34.80;;
46000;SDS011;72226;48.272;11.180;2024-03-07T05:41:25;52.15;;;35.88;;
46000;SDS011;72226;48.272;11.180;2024-03-07T05:43:53;51.42;;;36.97;;
46000;SDS011;72226;48.272;11.180;2024-03-07T05:46:18;57.40;;;37.40;;
46000;SDS011;72226;48.272;11.180;2024-03-07T05:48:43;59.15;;;39.45;;
46000;SDS011;72226;48.272;11.180;2024-03-07T05:51:11;61.30;;;37.45;;
46000;SDS011;72226;48.272;11.180;2024-03-07T05:53:36;58.05;;;38.30;;
46000;SDS011;72226;48.272;11.180;2024-03-07T05:56:02;51.00;;;36.50;;
46000;SDS011;72226;48.272;11.180;2024-03-07T05:58:28;56.67;;;38.08;;
46000;SDS011;72226;48.272;11.180;2024-03-07T06:00:53;49.22;;;35.03;;
46000;SDS011;72226;48.272;11.180;2024-03-07T06:03:18;52.22;;;36.60;;
46000;SDS011;72226;48.272;11.180;2024-03-07T06:05:47;50.95;;;36.60;;
46000;SDS011;72226;48.272;11.180;2024-03-07T06:08:16;52.65;;;37.47;;
46000;SDS011;72226;48.272;11.180;2024-03-07T06:10:42;52.10;;;33.80;;
46000;SDS011;72226;48.272;11.180;2024-03-07T06:13:07;59.00;;;37.35;;
46000;SDS011;72226;48.272;11.180;2024-03-07T06:15:32;52.35;;;37.05;;
46000;SDS011;72226;48.272;11.180;2024-03-07T06:17:57;47.67;;;34.55;;
46000;SDS011;72226;48.272;11.180;2024-03-07T06:20:23;53.90;;;38.50;;
46000;SDS011;72226;48.272;11.180;2024-03-07T06:22:49;52.72;;;36.58;;
46000;SDS011;72226;48.272;11.180;2024-03-07T06:25:17;57.03;;;38.17;;
46000;SDS011;72226;48.272;11.180;2024-03-07T06:27:48;52.03;;;35.42;;
46000;SDS011;72226;48.272;11.180;2024-03-07T06:30:14;47.72;;;33.22;;
46000;SDS011;72226;48.272;11.180;2024-03-07T06:32:43;51.85;;;34.15;;
46000;SDS011;72226;48.272;11.180;2024-03-07T06:35:08;48.28;;;34.00;;
46000;SDS011;72226;48.272;11.180;2024-03-07T06:37:34;45.80;;;32.92;;
46000;SDS011;72226;48.272;11.180;2024-03-07T06:40:00;53.13;;;36.03;;
46000;SDS011;72226;48.272;11.180;2024-03-07T06:42:25;55.53;;;37.90;;
46000;SDS011;72226;48.272;11.180;2024-03-07T06:44:50;57.70;;;36.67;;
46000;SDS011;72226;48.272;11.180;2024-03-07T06:47:15;55.25;;;37.60;;
46000;SDS011;72226;48.272;11.180;2024-03-07T06:49:41;51.30;;;36.78;;
46000;SDS011;72226;48.272;11.180;2024-03-07T06:52:07;50.25;;;36.53;;
46000;SDS011;72226;48.272;11.180;2024-03-07T06:54:33;50.75;;;35.10;;
46000;SDS011;72226;48.272;11.180;2024-03-07T06:56:58;56.78;;;36.95;;
46000;SDS011;72226;48.272;11.180;2024-03-07T06:59:23;52.33;;;36.30;;
46000;SDS011;72226;48.272;11.180;2024-03-07T07:01:49;47.78;;;33.50;;
46000;SDS011;72226;48.272;11.180;2024-03-07T07:04:14;61.47;;;38.05;;
46000;SDS011;72226;48.272;11.180;2024-03-07T07:06:40;56.40;;;37.60;;
46000;SDS011;72226;48.272;11.180;2024-03-07T07:09:08;48.78;;;35.65;;
46000;SDS011;72226;48.272;11.180;2024-03-07T07:11:33;53.47;;;36.47;;
46000;SDS011;72226;48.272;11.180;2024-03-07T07:13:59;50.75;;;37.33;;
46000;SDS011;72226;48.272;11.180;2024-03-07T07:16:24;55.08;;;38.63;;
46000;SDS011;72226;48.272;11.180;2024-03-07T07:18:50;55.88;;;38.75;;
46000;SDS011;72226;48.272;11.180;2024-03-07T07:21:15;57.78;;;39.83;;
46000;SDS011;72226;48.272;11.180;2024-03-07T07:23:41;63.03;;;40.38;;
46000;SDS011;72226;48.272;11.180;2024-03-07T07:26:06;58.15;;;38.50;;
46000;SDS011;72226;48.272;11.180;2024-03-07T07:28:31;56.35;;;38.42;;
46000;SDS011;72226;48.272;11.180;2024-03-07T07:30:58;65.50;;;38.10;;
46000;SDS011;72226;48.272;11.180;2024-03-07T07:33:23;55.72;;;40.33;;
46000;SDS011;72226;48.272;11.180;2024-03-07T07:35:48;57.38;;;40.40;;
46000;SDS011;72226;48.272;11.180;2024-03-07T07:38:13;58.60;;;40.03;;
46000;SDS011;72226;48.272;11.180;2024-03-07T07:40:39;57.53;;;40.03;;
46000;SDS011;72226;48.272;11.180;2024-03-07T07:43:06;54.08;;;39.05;;
46000;SDS011;72226;48.272;11.180;2024-03-07T07:45:32;59.20;;;38.90;;
46000;SDS011;72226;48.272;11.180;2024-03-07T07:48:00;52.97;;;36.30;;
46000;SDS011;72226;48.272;11.180;2024-03-07T07:50:25;67.35;;;39.85;;
46000;SDS011;72226;48.272;11.180;2024-03-07T07:52:55;53.13;;;38.28;;
46000;SDS011;72226;48.272;11.180;2024-03-07T07:55:21;57.53;;;37.45;;
46000;SDS011;72226;48.272;11.180;2024-03-07T07:57:51;56.78;;;38.40;;
46000;SDS011;72226;48.272;11.180;2024-03-07T08:00:21;56.53;;;37.10;;
46000;SDS011;72226;48.272;11.180;2024-03-07T08:02:57;54.78;;;38.40;;
46000;SDS011;72226;48.272;11.180;2024-03-07T08:05:27;53.75;;;37.70;;
46000;SDS011;72226;48.272;11.180;2024-03-07T08:07:53;61.38;;;39.47;;
46000;SDS011;72226;48.272;11.180;2024-03-07T08:10:19;57.58;;;39.10;;
46000;SDS011;72226;48.272;11.180;2024-03-07T08:12:45;56.97;;;38.10;;
46000;SDS011;72226;48.272;11.180;2024-03-07T08:15:11;55.78;;;37.60;;
46000;SDS011;72226;48.272;11.180;2024-03-07T08:17:39;53.08;;;36.28;;
46000;SDS011;72226;48.272;11.180;2024-03-07T08:20:05;60.03;;;39.03;;
46000;SDS011;72226;48.272;11.180;2024-03-07T08:22:35;56.08;;;38.95;;
46000;SDS011;72226;48.272;11.180;2024-03-07T08:25:00;55.08;;;37.83;;
46000;SDS011;72226;48.272;11.180;2024-03-07T08:27:25;49.97;;;38.63;;
46000;SDS011;72226;48.272;11.180;2024-03-07T08:29:51;59.40;;;38.03;;
46000;SDS011;72226;48.272;11.180;2024-03-07T08:32:16;57.83;;;38.40;;
46000;SDS011;72226;48.272;11.180;2024-03-07T08:34:41;53.13;;;37.53;;
46000;SDS011;72226;48.272;11.180;2024-03-07T08:37:06;54.20;;;36.45;;
46000;SDS011;72226;48.272;11.180;2024-03-07T08:39:32;51.75;;;37.05;;
46000;SDS011;72226;48.272;11.180;2024-03-07T08:41:57;54.17;;;37.40;;
46000;SDS011;72226;48.272;11.180;2024-03-07T08:44:22;51.88;;;36.42;;
46000;SDS011;72226;48.272;11.180;2024-03-07T08:46:47;58.70;;;38.60;;
46000;SDS011;72226;48.272;11.180;2024-03-07T08:49:12;51.25;;;36.28;;
46000;SDS011;72226;48.272;11.180;2024-03-07T08:51:41;54.20;;;37.20;;
46000;SDS011;72226;48.272;11.180;2024-03-07T08:54:07;55.38;;;38.83;;
46000;SDS011;72226;48.272;11.180;2024-03-07T08:56:32;54.38;;;38.97;;
46000;SDS011;72226;48.272;11.180;2024-03-07T08:58:57;50.58;;;36.00;;
46000;SDS011;72226;48.272;11.180;2024-03-07T09:01:23;58.88;;;37.05;;
46000;SDS011;72226;48.272;11.180;2024-03-07T09:03:48;52.72;;;36.55;;
46000;SDS011;72226;48.272;11.180;2024-03-07T09:06:14;55.33;;;37.65;;
46000;SDS011;72226;48.272;11.180;2024-03-07T09:08:40;58.15;;;36.80;;
46000;SDS011;72226;48.272;11.180;2024-03-07T09:11:06;53.28;;;38.55;;
46000;SDS011;72226;48.272;11.180;2024-03-07T09:13:31;51.20;;;35.97;;
46000;SDS011;72226;48.272;11.180;2024-03-07T09:15:56;53.63;;;38.10;;
46000;SDS011;72226;48.272;11.180;2024-03-07T09:18:21;55.15;;;39.28;;
46000;SDS011;72226;48.272;11.180;2024-03-07T09:20:49;53.92;;;37.40;;
46000;SDS011;72226;48.272;11.180;2024-03-07T09:23:14;52.72;;;38.47;;
46000;SDS011;72226;48.272;11.180;2024-03-07T09:25:39;48.13;;;35.35;;
46000;SDS011;72226;48.272;11.180;2024-03-07T09:28:05;56.55;;;37.03;;
46000;SDS011;72226;48.272;11.180;2024-03-07T09:30:31;59.22;;;40.00;;
46000;SDS011;72226;48.272;11.180;2024-03-07T09:32:56;58.28;;;39.88;;
46000;SDS011;72226;48.272;11.180;2024-03-07T09:35:21;58.90;;;41.30;;
46000;SDS011;72226;48.272;11.180;2024-03-07T09:37:47;54.05;;;38.22;;
46000;SDS011;72226;48.272;11.180;2024-03-07T09:40:13;59.80;;;37.45;;
46000;SDS011;72226;48.272;11.180;2024-03-07T09:42:45;55.70;;;38.90;;
46000;SDS011;72226;48.272;11.180;2024-03-07T09:45:14;58.20;;;38.53;;
46000;SDS011;72226;48.272;11.180;2024-03-07T09:47:42;57.75;;;38.50;;
46000;SDS011;72226;48.272;11.180;2024-03-07T09:50:09;55.83;;;39.10;;
46000;SDS011;72226;48.272;11.180;2024-03-07T09:52:34;63.40;;;41.83;;
46000;SDS011;72226;48.272;11.180;2024-03-07T09:55:01;58.15;;;39.28;;
46000;SDS011;72226;48.272;11.180;2024-03-07T09:57:26;60.10;;;39.75;;
46000;SDS011;72226;48.272;11.180;2024-03-07T09:59:52;52.78;;;38.72;;
46000;SDS011;72226;48.272;11.180;2024-03-07T10:02:19;58.75;;;38.55;;
46000;SDS011;72226;48.272;11.180;2024-03-07T10:04:48;54.80;;;40.03;;
46000;SDS011;72226;48.272;11.180;2024-03-07T10:07:15;56.90;;;40.03;;
46000;SDS011;72226;48.272;11.180;2024-03-07T10:09:41;56.42;;;40.42;;
46000;SDS011;72226;48.272;11.180;2024-03-07T10:12:07;53.90;;;37.78;;
46000;SDS011;72226;48.272;11.180;2024-03-07T10:14:35;57.90;;;38.80;;
46000;SDS011;72226;48.272;11.180;2024-03-07T10:17:01;49.75;;;35.70;;
46000;SDS011;72226;48.272;11.180;2024-03-07T10:19:28;59.17;;;38.25;;
46000;SDS011;72226;48.272;11.180;2024-03-07T10:21:53;54.60;;;36.50;;
46000;SDS011;72226;48.272;11.180;2024-03-07T10:24:23;55.30;;;40.20;;
46000;SDS011;72226;48.272;11.180;2024-03-07T10:26:49;52.80;;;37.83;;
46000;SDS011;72226;48.272;11.180;2024-03-07T10:29:14;52.65;;;36.13;;
46000;SDS011;72226;48.272;11.180;2024-03-07T10:31:39;54.35;;;36.47;;
46000;SDS011;72226;48.272;11.180;2024-03-07T10:34:06;52.88;;;36.45;;
46000;SDS011;72226;48.272;11.180;2024-03-07T10:36:33;55.53;;;36.88;;
46000;SDS011;72226;48.272;11.180;2024-03-07T10:38:59;55.28;;;36.75;;
46000;SDS011;72226;48.272;11.180;2024-03-07T10:41:37;54.13;;;35.53;;
46000;SDS011;72226;48.272;11.180;2024-03-07T10:44:05;48.13;;;34.55;;
46000;SDS011;72226;48.272;11.180;2024-03-07T10:46:31;51.30;;;34.20;;
46000;SDS011;72226;48.272;11.180;2024-03-07T10:48:57;53.20;;;35.55;;
46000;SDS011;72226;48.272;11.180;2024-03-07T10:51:36;52.95;;;36.75;;
46000;SDS011;72226;48.272;11.180;2024-03-07T10:54:20;47.70;;;34.30;;
46000;SDS011;72226;48.272;11.180;2024-03-07T10:59:37;49.70;;;33.15;;
46000;SDS011;72226;48.272;11.180;2024-03-07T11:02:46;47.78;;;34.28;;
46000;SDS011;72226;48.272;11.180;2024-03-07T11:04:52;46.33;;;33.47;;
46000;SDS011;72226;48.272;11.180;2024-03-07T11:07:19;45.33;;;31.08;;
46000;SDS011;72226;48.272;11.180;2024-03-07T11:09:45;46.15;;;31.67;;
46000;SDS011;72226;48.272;11.180;2024-03-07T11:12:12;49.58;;;34.33;;
46000;SDS011;72226;48.272;11.180;2024-03-07T11:14:37;53.78;;;34.20;;
46000;SDS011;72226;48.272;11.180;2024-03-07T11:17:03;41.83;;;29.50;;
46000;SDS011;72226;48.272;11.180;2024-03-07T11:19:30;45.53;;;32.03;;
46000;SDS011;72226;48.272;11.180;2024-03-07T11:21:57;46.53;;;31.15;;
46000;SDS011;72226;48.272;11.180;2024-03-07T11:24:26;41.55;;;32.42;;
46000;SDS011;72226;48.272;11.180;2024-03-07T11:26:53;42.13;;;31.27;;
46000;SDS011;72226;48.272;11.180;2024-03-07T11:32:06;45.53;;;29.55;;
46000;SDS011;72226;48.272;11.180;2024-03-07T11:34:31;42.28;;;28.58;;
46000;SDS011;72226;48.272;11.180;2024-03-07T11:36:56;46.25;;;29.92;;
46000;SDS011;72226;48.272;11.180;2024-03-07T11:42:18;49.58;;;28.70;;
46000;SDS011;72226;48.272;11.180;2024-03-07T11:44:44;41.38;;;29.70;;
46000;SDS011;72226;48.272;11.180;2024-03-07T11:47:10;46.42;;;31.73;;
46000;SDS011;72226;48.272;11.180;2024-03-07T11:49:37;38.25;;;27.73;;
46000;SDS011;72226;48.272;11.180;2024-03-07T11:52:03;42.38;;;27.58;;
46000;SDS011;72226;48.272;11.180;2024-03-07T11:54:30;43.28;;;28.10;;
46000;SDS011;72226;48.272;11.180;2024-03-07T11:56:56;42.65;;;25.83;;
46000;SDS011;72226;48.272;11.180;2024-03-07T11:59:22;28.90;;;21.85;;
46000;SDS011;72226;48.272;11.180;2024-03-07T12:01:51;32.67;;;25.55;;
46000;SDS011;72226;48.272;11.180;2024-03-07T12:04:16;40.35;;;28.55;;
46000;SDS011;72226;48.272;11.180;2024-03-07T12:06:50;39.63;;;26.33;;
46000;SDS011;72226;48.272;11.180;2024-03-07T12:09:15;33.88;;;24.45;;
46000;SDS011;72226;48.272;11.180;2024-03-07T12:11:49;34.42;;;22.80;;
46000;SDS011;72226;48.272;11.180;2024-03-07T12:14:18;33.45;;;24.88;;
46000;SDS011;72226;48.272;11.180;2024-03-07T12:16:43;31.95;;;23.63;;
46000;SDS011;72226;48.272;11.180;2024-03-07T12:19:08;31.60;;;24.05;;
46000;SDS011;72226;48.272;11.180;2024-03-07T12:21:36;35.33;;;25.63;;
46000;SDS011;72226;48.272;11.180;2024-03-07T12:24:10;38.28;;;25.85;;
46000;SDS011;72226;48.272;11.180;2024-03-07T12:26:35;36.53;;;25.42;;
46000;SDS011;72226;48.272;11.180;2024-03-07T12:29:08;35.05;;;25.92;;
46000;SDS011;72226;48.272;11.180;2024-03-07T12:31:37;36.80;;;25.05;;
46000;SDS011;72226;48.272;11.180;2024-03-07T12:34:02;35.83;;;25.15;;
46000;SDS011;72226;48.272;11.180;2024-03-07T12:36:29;39.33;;;25.52;;
46000;SDS011;72226;48.272;11.180;2024-03-07T12:38:59;32.20;;;23.50;;
46000;SDS011;72226;48.272;11.180;2024-03-07T12:41:34;37.15;;;24.42;;
46000;SDS011;72226;48.272;11.180;2024-03-07T12:43:59;35.20;;;25.98;;
46000;SDS011;72226;48.272;11.180;2024-03-07T12:46:24;37.58;;;24.20;;
46000;SDS011;72226;48.272;11.180;2024-03-07T12:48:50;34.22;;;23.67;;
46000;SDS011;72226;48.272;11.180;2024-03-07T12:51:15;32.28;;;22.35;;
46000;SDS011;72226;48.272;11.180;2024-03-07T12:53:43;34.55;;;25.48;;
46000;SDS011;72226;48.272;11.180;2024-03-07T12:56:08;35.58;;;25.30;;
46000;SDS011;72226;48.272;11.180;2024-03-07T12:58:34;31.80;;;23.88;;
46000;SDS011;72226;48.272;11.180;2024-03-07T13:00:59;36.92;;;24.23;;
46000;SDS011;72226;48.272;11.180;2024-03-07T13:03:25;32.92;;;21.98;;
46000;SDS011;72226;48.272;11.180;2024-03-07T13:05:55;36.35;;;23.23;;
46000;SDS011;72226;48.272;11.180;2024-03-07T13:08:20;36.20;;;23.25;;
46000;SDS011;72226;48.272;11.180;2024-03-07T13:10:50;33.88;;;22.50;;
46000;SDS011;72226;48.272;11.180;2024-03-07T13:13:15;34.72;;;21.55;;
46000;SDS011;72226;48.272;11.180;2024-03-07T13:15:41;34.30;;;23.83;;
46000;SDS011;72226;48.272;11.180;2024-03-07T13:18:07;38.70;;;23.63;;
46000;SDS011;72226;48.272;11.180;2024-03-07T13:20:34;36.75;;;23.58;;
46000;SDS011;72226;48.272;11.180;2024-03-07T13:22:59;35.75;;;23.92;;
46000;SDS011;72226;48.272;11.180;2024-03-07T13:25:26;35.78;;;25.50;;
46000;SDS011;72226;48.272;11.180;2024-03-07T13:27:56;29.67;;;23.23;;
46000;SDS011;72226;48.272;11.180;2024-03-07T13:30:22;32.92;;;23.48;;
46000;SDS011;72226;48.272;11.180;2024-03-07T13:32:52;31.90;;;21.38;;
46000;SDS011;72226;48.272;11.180;2024-03-07T13:35:18;36.50;;;22.10;;
46000;SDS011;72226;48.272;11.180;2024-03-07T13:37:45;28.98;;;21.13;;
46000;SDS011;72226;48.272;11.180;2024-03-07T13:40:12;29.30;;;19.65;;
46000;SDS011;72226;48.272;11.180;2024-03-07T13:42:57;31.65;;;19.75;;
46000;SDS011;72226;48.272;11.180;2024-03-07T13:45:33;34.72;;;20.48;;
46000;SDS011;72226;48.272;11.180;2024-03-07T13:48:08;33.03;;;20.20;;
46000;SDS011;72226;48.272;11.180;2024-03-07T13:50:35;31.85;;;20.58;;
46000;SDS011;72226;48.272;11.180;2024-03-07T13:53:00;33.85;;;22.05;;
46000;SDS011;72226;48.272;11.180;2024-03-07T14:01:08;36.47;;;24.25;;
46000;SDS011;72226;48.272;11.180;2024-03-07T14:17:30;35.65;;;24.15;;
46000;SDS011;72226;48.272;11.180;2024-03-07T14:20:20;39.10;;;23.25;;
46000;SDS011;72226;48.272;11.180;2024-03-07T14:23:09;36.05;;;23.27;;
46000;SDS011;72226;48.272;11.180;2024-03-07T14:25:54;33.70;;;21.73;;
46000;SDS011;72226;48.272;11.180;2024-03-07T14:30:51;29.40;;;21.25;;
46000;SDS011;72226;48.272;11.180;2024-03-07T14:33:19;33.40;;;23.27;;
46000;SDS011;72226;48.272;11.180;2024-03-07T14:36:01;32.28;;;22.55;;